Time;durP1;ratioP1;P1;durP2;ratioP2;P2;SDS_P1;SDS_P2;PMS_P1;PMS_P2;Temp;Humidity;BMP_temperature;BMP_pressure;BME280_temperature;BME280_humidity;BME280_pressure;Samples;Min_cycle;Max_cycle;Signal;HPM_P1;HPM_P2
2024/05/07 00:00:33;;;;;;;4.55;3.70;;;;;;;14.42;69.99;98997.41;5044619;28;20010;-95
2024/05/07 00:03:02;;;;;;;4.22;3.55;;;;;;;14.54;70.31;99022.06;5095597;28;20129;-96
2024/05/07 00:05:30;;;;;;;9.38;3.42;;;;;;;14.38;70.67;99012.66;5043890;27;20431;-96
2024/05/07 00:07:58;;;;;;;6.80;3.80;;;;;;;14.38;70.99;99028.91;5042809;28;19998;-95
2024/05/07 00:10:24;;;;;;;6.10;3.60;;;;;;;14.27;71.77;99020.19;5069407;28;20002;-96
2024/05/07 00:12:50;;;;;;;5.97;3.65;;;;;;;14.17;71.45;99002.22;5043754;28;20010;-96
2024/05/07 00:15:16;;;;;;;6.50;3.70;;;;;;;14.27;71.77;99031.03;5043178;28;20055;-96
2024/05/07 00:17:46;;;;;;;7.63;4.13;;;;;;;14.25;71.03;99017.78;5072817;27;20069;-96
2024/05/07 00:20:13;;;;;;;10.32;4.00;;;;;;;14.24;71.70;99035.16;5074294;27;20504;-96
2024/05/07 00:22:39;;;;;;;4.85;3.47;;;;;;;14.09;71.69;99005.63;5100533;27;20034;-96
2024/05/07 00:25:14;;;;;;;5.72;4.00;;;;;;;14.11;71.88;99017.81;5073416;27;20025;-96
2024/05/07 00:27:40;;;;;;;6.85;3.70;;;;;;;14.07;72.47;99013.25;5076069;27;20005;-96
2024/05/07 00:30:10;;;;;;;7.90;3.40;;;;;;;14.12;72.53;99029.41;5099723;27;20020;-96
2024/05/07 00:32:38;;;;;;;9.15;3.67;;;;;;;13.99;72.36;99022.91;5076960;27;20008;-96
2024/05/07 00:35:04;;;;;;;11.45;4.75;;;;;;;13.68;72.63;98998.31;5072604;27;20008;-95
2024/05/07 00:37:32;;;;;;;6.22;3.38;;;;;;;13.80;72.86;99020.28;5070631;27;20012;-94
2024/05/07 00:39:57;;;;;;;7.10;3.83;;;;;;;13.71;72.94;99013.94;5098487;27;20009;-96
2024/05/07 00:42:26;;;;;;;6.28;3.40;;;;;;;13.61;73.13;99006.78;5099031;27;19997;-96
2024/05/07 00:44:59;;;;;;;6.47;3.22;;;;;;;13.53;72.35;98993.97;5074725;27;20353;-96
2024/05/07 00:47:25;;;;;;;4.95;3.47;;;;;;;13.58;72.73;99023.63;5098114;27;20521;-96
2024/05/07 00:49:50;;;;;;;8.57;3.78;;;;;;;13.51;73.32;99023.22;5072499;27;20017;-96
2024/05/07 00:52:16;;;;;;;6.15;3.35;;;;;;;13.62;72.30;99021.13;5072945;27;20004;-96
2024/05/07 00:54:44;;;;;;;5.80;3.60;;;;;;;13.69;72.14;99013.44;5074894;27;20009;-96
2024/05/07 00:57:10;;;;;;;6.32;3.50;;;;;;;13.84;71.65;99029.41;5074599;27;19997;-96
2024/05/07 00:59:36;;;;;;;8.27;3.67;;;;;;;13.71;72.32;99024.75;5099853;27;20329;-96
2024/05/07 01:02:04;;;;;;;11.18;3.97;;;;;;;13.75;72.62;99034.69;5099085;27;20022;-96
2024/05/07 01:04:33;;;;;;;6.38;3.55;;;;;;;13.70;72.52;99026.66;5073101;27;20016;-96
2024/05/07 01:06:59;;;;;;;6.82;3.75;;;;;;;13.64;73.49;99025.16;5072718;27;20001;-96
2024/05/07 01:09:24;;;;;;;5.18;3.40;;;;;;;13.57;72.63;99019.31;5073180;27;20360;-96
2024/05/07 01:11:50;;;;;;;8.52;3.90;;;;;;;13.45;73.15;99000.84;5102505;27;20008;-96
2024/05/07 01:14:16;;;;;;;11.23;3.97;;;;;;;13.52;73.09;99012.09;5077870;27;20007;-94
2024/05/07 01:16:43;;;;;;;7.40;3.78;;;;;;;13.57;73.50;99021.22;5076030;27;20393;-96
2024/05/07 01:19:14;;;;;;;6.75;3.33;;;;;;;13.56;73.32;99039.34;5077059;27;20005;-96
2024/05/07 01:21:42;;;;;;;8.20;3.60;;;;;;;13.51;73.84;99036.75;5101528;27;20008;-96
2024/05/07 01:24:08;;;;;;;9.00;3.72;;;;;;;13.21;74.35;99002.84;5074414;27;20024;-96
2024/05/07 01:26:33;;;;;;;5.53;3.70;;;;;;;13.13;74.04;98998.91;5074349;27;20328;-96
2024/05/07 01:29:05;;;;;;;6.63;3.92;;;;;;;13.26;74.07;99025.22;5102736;27;19993;-96
2024/05/07 01:31:34;;;;;;;6.55;3.88;;;;;;;13.09;74.62;99009.53;5078243;27;20001;-94
2024/05/07 01:33:59;;;;;;;5.78;4.18;;;;;;;13.10;74.62;99019.22;5075064;27;20033;-95
2024/05/07 01:36:27;;;;;;;8.52;4.35;;;;;;;13.03;74.77;99017.97;5074328;27;19993;-96
2024/05/07 01:38:57;;;;;;;7.15;4.35;;;;;;;13.01;74.65;99017.47;5075201;27;20053;-95
2024/05/07 01:41:25;;;;;;;7.68;4.05;;;;;;;13.13;74.75;99032.13;5075961;27;20029;-93
2024/05/07 01:43:54;;;;;;;13.38;4.45;;;;;;;12.98;75.00;99008.06;5075517;27;20005;-95
2024/05/07 01:46:20;;;;;;;6.97;4.78;;;;;;;12.89;75.17;98994.41;5075372;27;20009;-96
2024/05/07 01:48:46;;;;;;;5.20;4.10;;;;;;;13.01;75.13;99012.06;5075035;27;20005;-96
2024/05/07 01:51:11;;;;;;;7.68;4.40;;;;;;;13.04;75.08;99015.00;5075139;27;20381;-96
2024/05/07 01:53:37;;;;;;;8.93;4.25;;;;;;;12.93;75.01;99002.75;5075273;27;20076;-96
2024/05/07 01:56:10;;;;;;;9.65;4.75;;;;;;;13.03;74.78;99020.69;5074198;27;20457;-96
2024/05/07 01:58:43;;;;;;;10.20;3.78;;;;;;;12.97;74.36;98998.34;5076383;27;20005;-96
2024/05/07 02:01:08;;;;;;;7.95;4.38;;;;;;;13.06;74.32;98991.19;5077794;27;20015;-96
2024/05/07 02:03:36;;;;;;;9.70;4.32;;;;;;;13.06;74.44;99002.00;5101984;27;20329;-96
2024/05/07 02:06:02;;;;;;;7.13;4.07;;;;;;;13.05;74.87;99007.69;5076212;27;20007;-96
2024/05/07 02:08:31;;;;;;;8.35;4.40;;;;;;;13.10;75.03;99027.34;5075792;27;19993;-94
2024/05/07 02:10:56;;;;;;;5.40;3.42;;;;;;;12.91;74.96;99008.44;5075465;27;20000;-96
2024/05/07 02:13:27;;;;;;;7.18;3.80;;;;;;;12.78;75.21;98997.53;5074479;27;20441;-94
2024/05/07 02:15:54;;;;;;;8.20;4.05;;;;;;;12.74;75.32;99003.53;5075999;27;20008;-96
2024/05/07 02:18:20;;;;;;;7.18;4.00;;;;;;;12.73;75.23;98999.22;5077761;27;20445;-96
2024/05/07 02:20:49;;;;;;;5.55;4.20;;;;;;;12.68;75.52;99002.00;5074395;27;20012;-95
2024/05/07 02:23:14;;;;;;;4.97;3.55;;;;;;;12.67;75.39;99005.00;5127620;27;20001;-96
2024/05/07 02:25:40;;;;;;;6.35;3.67;;;;;;;12.61;75.74;99011.56;5073844;27;20001;-95
2024/05/07 02:28:06;;;;;;;14.25;4.22;;;;;;;12.43;75.47;98996.94;5074709;27;20021;-95
2024/05/07 02:30:32;;;;;;;4.65;3.97;;;;;;;12.38;75.64;98991.59;5073635;27;20041;-94
2024/05/07 02:32:58;;;;;;;4.93;3.90;;;;;;;12.44;75.54;99006.66;5074246;27;20306;-96
2024/05/07 02:35:24;;;;;;;12.73;4.70;;;;;;;12.47;75.73;99011.44;5100270;27;20020;-96
2024/05/07 02:37:49;;;;;;;6.82;4.22;;;;;;;12.45;75.68;99003.66;5075434;27;20009;-96
2024/05/07 02:40:15;;;;;;;7.57;4.35;;;;;;;12.52;75.69;99031.09;5074822;27;20012;-96
2024/05/07 02:42:41;;;;;;;11.40;4.40;;;;;;;12.36;76.07;99008.09;5073064;27;20085;-95
2024/05/07 02:45:09;;;;;;;12.90;4.45;;;;;;;12.32;76.15;99007.84;5072982;27;19997;-96
2024/05/07 02:47:35;;;;;;;8.27;4.35;;;;;;;12.43;76.07;99032.84;5074079;27;20012;-96
2024/05/07 02:50:02;;;;;;;6.63;4.40;;;;;;;12.33;76.36;99020.28;5075121;27;20001;-95
2024/05/07 02:52:29;;;;;;;7.30;4.28;;;;;;;12.21;76.49;99005.59;5078497;27;20008;-96
2024/05/07 02:54:55;;;;;;;9.73;4.50;;;;;;;12.30;76.36;99020.03;5075904;27;20009;-96
2024/05/07 02:57:21;;;;;;;8.00;4.60;;;;;;;12.37;76.39;99038.56;5076457;27;19993;-95
2024/05/07 02:59:49;;;;;;;10.90;4.90;;;;;;;12.27;76.66;99026.03;5074296;27;20008;-95
2024/05/07 03:02:15;;;;;;;9.68;4.80;;;;;;;12.28;76.22;99016.81;5101902;27;20009;-96
2024/05/07 03:04:43;;;;;;;9.05;4.90;;;;;;;12.32;76.25;99024.06;5073910;27;20064;-96
2024/05/07 03:07:09;;;;;;;10.93;4.43;;;;;;;12.38;76.00;99034.81;5074414;27;20001;-95
2024/05/07 03:09:35;;;;;;;14.13;4.22;;;;;;;12.41;76.21;99042.31;5073342;27;20016;-95
2024/05/07 03:12:01;;;;;;;8.75;4.28;;;;;;;12.30;76.43;99031.63;5074173;27;20081;-96
2024/05/07 03:14:26;;;;;;;10.10;4.70;;;;;;;12.28;76.55;99033.03;5074000;27;19997;-95
2024/05/07 03:16:52;;;;;;;8.68;4.40;;;;;;;12.32;76.72;99042.16;5073761;27;20013;-96
2024/05/07 03:19:18;;;;;;;9.02;4.78;;;;;;;12.33;76.40;99033.78;5073690;27;20005;-94
2024/05/07 03:21:45;;;;;;;6.82;4.57;;;;;;;12.33;76.26;99041.06;5100181;27;20017;-95
2024/05/07 03:24:29;;;;;;;12.45;4.50;;;;;;;12.28;76.58;99022.22;5099066;27;19997;-96
2024/05/07 03:26:55;;;;;;;7.88;4.65;;;;;;;12.38;76.54;99043.69;5104151;27;20001;-94
2024/05/07 03:29:21;;;;;;;11.18;4.55;;;;;;;12.41;75.99;99037.75;5072898;27;20011;-95
2024/05/07 03:31:46;;;;;;;17.63;4.97;;;;;;;12.39;76.21;99036.41;5072693;27;20001;-89
2024/05/07 03:34:13;;;;;;;13.38;4.35;;;;;;;12.39;76.01;99036.41;5123331;27;20001;-90
2024/05/07 03:36:51;;;;;;;8.55;4.30;;;;;;;12.48;75.84;99042.78;5151400;27;20076;-90
2024/05/07 03:39:17;;;;;;;9.65;5.05;;;;;;;12.51;75.73;99042.19;5073825;27;20441;-90
2024/05/07 03:41:43;;;;;;;14.35;5.47;;;;;;;12.54;75.43;99041.63;5156133;27;20056;-90
2024/05/07 03:44:10;;;;;;;19.95;5.38;;;;;;;12.62;75.66;99061.78;5125093;27;20017;-90
2024/05/07 03:46:35;;;;;;;9.80;4.97;;;;;;;12.54;75.72;99047.81;5128249;27;20016;-90
2024/05/07 03:49:01;;;;;;;6.80;4.95;;;;;;;12.71;75.32;99060.84;5124824;27;20005;-89
2024/05/07 03:51:26;;;;;;;16.92;4.72;;;;;;;12.68;74.99;99052.53;5150061;27;20009;-90
2024/05/07 03:53:54;;;;;;;8.82;4.15;;;;;;;12.67;75.13;99053.63;5122462;27;20009;-91
2024/05/07 03:56:21;;;;;;;10.45;4.55;;;;;;;12.67;75.23;99053.63;5118974;27;20005;-91
2024/05/07 03:58:47;;;;;;;8.50;4.68;;;;;;;12.56;75.13;99050.25;5098404;27;20013;-91
2024/05/07 04:01:35;;;;;;;8.77;3.95;;;;;;;12.70;75.05;99072.75;5072999;27;20006;-90
2024/05/07 04:04:13;;;;;;;8.60;3.83;;;;;;;12.66;74.95;99054.72;5012214;28;20003;-90
2024/05/07 04:06:42;;;;;;;8.02;4.22;;;;;;;12.72;74.58;99078.66;5002350;28;20013;-91
2024/05/07 04:09:11;;;;;;;5.20;4.10;;;;;;;12.71;74.72;99060.84;5009422;28;20019;-89
2024/05/07 04:11:40;;;;;;;10.13;4.30;;;;;;;12.72;74.22;99057.06;5029569;28;20065;-90
2024/05/07 04:14:15;;;;;;;9.88;4.38;;;;;;;12.87;74.25;99076.88;5055185;28;20510;-90
2024/05/07 04:16:41;;;;;;;7.90;4.78;;;;;;;12.84;74.03;99053.13;4981149;28;20003;-89
2024/05/07 04:19:06;;;;;;;6.22;4.53;;;;;;;13.11;73.80;99085.72;5028019;28;20456;-89
2024/05/07 04:21:39;;;;;;;9.52;4.28;;;;;;;13.12;73.81;99078.41;5026457;28;20080;-91
2024/05/07 04:24:04;;;;;;;9.45;4.40;;;;;;;13.03;73.84;99069.34;4981363;28;20004;-90
2024/05/07 04:26:30;;;;;;;15.13;4.72;;;;;;;13.08;73.18;99070.06;5025301;28;20015;-90
2024/05/07 04:29:05;;;;;;;10.40;5.40;;;;;;;13.19;73.31;99075.34;4978996;28;20015;-91
2024/05/07 04:31:32;;;;;;;15.23;5.78;;;;;;;13.36;72.37;99081.03;4929532;28;20000;-94
2024/05/07 04:33:58;;;;;;;10.43;5.63;;;;;;;13.46;72.35;99080.09;4929518;28;20008;-95
2024/05/07 04:36:25;;;;;;;8.95;4.75;;;;;;;13.53;70.75;99065.09;5003559;28;19999;-93
2024/05/07 04:39:32;;;;;;;11.63;4.50;;;;;;;13.83;69.57;99083.81;4980687;28;19996;-95
2024/05/07 04:48:53;;;;;;;18.05;6.15;;;;;;;14.07;68.36;99060.13;4945938;28;20008;-96
2024/05/07 04:51:22;;;;;;;16.42;4.50;;;;;;;14.28;67.76;99076.78;4898716;29;20002;-95
2024/05/07 04:57:37;;;;;;;7.78;4.20;;;;;;;14.40;66.44;99054.63;4930216;29;20049;-94
2024/05/07 05:07:07;;;;;;;12.85;4.10;;;;;;;14.81;65.82;99058.41;4856338;29;20054;-95
2024/05/07 05:10:29;;;;;;;;;;;;;;;;;;;;;
2024/05/07 05:26:11;;;;;;;14.25;7.70;;;;;;;15.61;63.54;99085.88;4868622;29;20099;-95
2024/05/07 05:28:37;;;;;;;4.90;3.63;;;;;;;15.63;62.22;99073.59;4808676;29;20031;-94
2024/05/07 05:38:37;;;;;;;9.07;4.35;;;;;;;16.02;61.45;99063.97;4796806;29;20370;-96
2024/05/07 05:41:46;;;;;;;;;;;;;;;;;;;;;
2024/05/07 06:25:06;;;;;;;16.60;5.15;;;;;;;18.24;54.43;99056.06;5158949;27;20352;-94
2024/05/07 06:27:35;;;;;;;13.55;5.05;;;;;;;18.41;54.67;99056.00;5128547;27;19993;-96
2024/05/07 06:44:26;;;;;;;19.02;6.00;;;;;;;19.33;52.12;99051.72;5153019;27;20049;-94
2024/05/07 06:46:54;;;;;;;12.05;4.03;;;;;;;19.51;51.74;99061.38;5076931;27;19997;-96
2024/05/07 06:49:57;;;;;;;;;;;;;;;;;;;;;
2024/05/07 06:56:13;;;;;;;9.48;4.25;;;;;;;20.02;51.46;99052.19;4977225;28;20001;-94
2024/05/07 07:05:32;;;;;;;8.60;4.32;;;;;;;20.25;50.27;99034.19;5361248;23;20114;-91
2024/05/07 07:07:58;;;;;;;15.73;6.43;;;;;;;20.46;49.91;99038.75;5089156;27;20009;-94
2024/05/07 07:10:25;;;;;;;13.95;5.63;;;;;;;20.69;49.60;99050.88;5116133;27;20004;-94
2024/05/07 07:13:58;;;;;;;;;;;;;;;;;;;;;
2024/05/07 07:16:28;;;;;;;11.93;4.50;;;;;;;21.13;49.40;99040.06;5145528;27;20057;-95
2024/05/07 07:26:53;;;;;;;9.23;4.68;;;;;;;21.71;48.19;99030.72;5689951;23;20006;-93
2024/05/07 07:29:19;;;;;;;14.90;4.80;;;;;;;21.91;47.30;99043.34;5094331;28;20017;-93
2024/05/07 07:31:50;;;;;;;9.93;5.28;;;;;;;21.94;47.21;99025.44;5104648;27;20012;-93
2024/05/07 07:34:25;;;;;;;14.63;5.63;;;;;;;22.18;47.72;99051.84;5071152;28;20032;-93
2024/05/07 07:46:58;;;;;;;21.17;7.35;;;;;;;22.66;45.93;99016.97;4997948;28;20040;-93
2024/05/07 07:49:35;;;;;;;;;;;;;;;;;;;;;
2024/05/07 07:52:26;;;;;;;;;;;;;;;;;;;;;
2024/05/07 07:58:44;;;;;;;2.25;1.70;;;;;;;23.04;40.46;99006.44;4899583;29;20014;-95
2024/05/07 08:09:10;;;;;;;5.30;2.17;;;;;;;23.26;41.36;99032.38;4812454;29;20012;-95
2024/05/07 09:12:12;;;;;;;3.25;1.90;;;;;;;24.34;39.95;99008.41;4998431;28;20070;-95
2024/05/07 09:15:16;;;;;;;5.35;2.00;;;;;;;24.50;39.49;99013.75;4912499;29;19994;-94
2024/05/07 09:24:54;;;;;;;;;;;;;;;;;;;;;
2024/05/07 09:28:09;;;;;;;;;;;;;;;;;;;;;
2024/05/07 10:42:23;;;;;;;4.53;1.58;;;;;;;25.60;35.46;98983.25;5041818;28;19999;-94
2024/05/07 10:45:32;;;;;;;3.33;1.45;;;;;;;25.92;36.76;99018.66;4984346;28;19999;-96
2024/05/07 10:48:41;;;;;;;;;;;;;;;;;;;;;
2024/05/07 10:52:19;;;;;;;;;;;;;;;;;;;;;
2024/05/07 10:55:02;;;;;;;4.40;1.45;;;;;;;25.89;35.53;98993.75;4853954;29;20014;-92
2024/05/07 10:57:54;;;;;;;3.58;1.40;;;;;;;25.99;36.47;98973.78;4916273;29;20013;-93
2024/05/07 11:03:21;;;;;;;6.18;1.80;;;;;;;26.21;36.09;98980.25;4879903;29;19949;-92
2024/05/07 11:06:15;;;;;;;4.45;1.67;;;;;;;26.31;34.86;98985.03;4892831;29;20014;-94
2024/05/07 11:08:42;;;;;;;2.97;1.70;;;;;;;26.24;34.34;98979.47;4912474;28;20092;-91
2024/05/07 11:14:45;;;;;;;2.58;1.50;;;;;;;26.14;33.19;98967.19;5255264;23;20018;-96
2024/05/07 11:20:06;;;;;;;7.15;1.98;;;;;;;26.34;33.26;98969.69;5285791;22;20354;-92
2024/05/07 11:22:57;;;;;;;;;;;;;;;;;;;;;
2024/05/07 11:25:46;;;;;;;;;;;;;;;26.56;34.19;98987.16;5077274;28;20035;-95
2024/05/07 11:28:16;;;;;;;5.03;1.50;;;;;;;26.51;34.08;98984.78;5058498;28;19921;-94
2024/05/07 11:31:23;;;;;;;4.53;1.60;;;;;;;26.43;33.45;98961.84;5069156;28;20024;-91
2024/05/07 11:41:38;;;;;;;2.47;1.17;;;;;;;26.46;31.08;98971.31;4892144;29;20024;-94
2024/05/07 11:44:25;;;;;;;;;;;;;;;;;;;;;
2024/05/07 11:47:16;;;;;;;3.15;1.70;;;;;;;26.35;32.67;98952.72;5092319;28;20005;-91
2024/05/07 11:57:54;;;;;;;;;;;;;;;;;;;;;
2024/05/07 12:00:24;;;;;;;4.88;1.50;;;;;;;26.18;33.18;98956.97;4872435;29;20018;-92
2024/05/07 12:02:49;;;;;;;5.22;1.50;;;;;;;26.16;34.01;98928.94;4876652;29;20194;-95
2024/05/07 12:05:55;;;;;;;;;;;;;;;;;;;;;
2024/05/07 13:34:03;;;;;;;2.42;1.30;;;;;;;26.73;31.65;98873.28;6054006;22;20025;-96
2024/05/07 13:36:38;;;;;;;6.75;1.60;;;;;;;27.10;31.92;98877.72;5139033;27;20001;-95
2024/05/07 13:42:37;;;;;;;2.40;1.30;;;;;;;27.81;29.27;98876.19;5049168;28;19997;-96
2024/05/07 14:44:53;;;;;;;3.47;1.40;;;;;;;32.30;21.42;98885.72;5028820;28;20082;-92
2024/05/07 14:48:10;;;;;;;3.65;1.20;;;;;;;32.31;22.46;98896.44;4997765;28;20514;-94
2024/05/07 14:50:56;;;;;;;3.70;1.33;;;;;;;32.19;22.34;98869.22;4991974;28;20005;-94
2024/05/07 14:53:29;;;;;;;2.25;1.10;;;;;;;32.39;21.74;98897.84;4946251;28;20011;-95
2024/05/07 14:59:28;;;;;;;6.27;2.87;;;;;;;32.34;23.16;98873.28;5005872;28;20003;-95
2024/05/07 15:01:54;;;;;;;4.88;1.40;;;;;;;32.73;22.85;98882.88;4998442;28;20365;-93
2024/05/07 15:04:23;;;;;;;4.35;1.40;;;;;;;32.59;21.85;98889.53;5048064;28;20008;-93
2024/05/07 15:06:49;;;;;;;2.72;1.70;;;;;;;32.74;22.16;98873.28;5005798;28;20014;-95
2024/05/07 15:09:30;;;;;;;2.10;1.30;;;;;;;32.92;22.56;98872.13;5005712;28;20007;-93
2024/05/07 15:12:42;;;;;;;;;;;;;;;;;;;;;
2024/05/07 15:18:43;;;;;;;4.82;1.60;;;;;;;32.38;22.58;98885.16;5062111;28;20010;-93
2024/05/07 15:21:30;;;;;;;2.72;1.27;;;;;;;32.13;22.88;98887.63;4984790;28;19999;-95
2024/05/07 15:24:34;;;;;;;3.75;1.55;;;;;;;31.77;23.21;98868.75;5012702;28;20439;-96
2024/05/07 15:27:05;;;;;;;8.23;2.13;;;;;;;31.75;23.52;98887.88;5005448;28;20003;-93
2024/05/07 15:29:43;;;;;;;6.40;1.35;;;;;;;31.28;24.27;98896.19;4981187;28;20015;-93
2024/05/07 15:32:31;;;;;;;2.83;1.17;;;;;;;30.47;25.21;98871.81;4984534;28;20010;-93
2024/05/07 15:35:05;;;;;;;4.22;1.80;;;;;;;30.40;25.41;98894.91;5002256;28;20003;-92
2024/05/07 16:13:27;;;;;;;6.30;2.00;;;;;;;27.29;32.29;98923.59;5537887;22;20106;31
2024/05/07 16:15:55;;;;;;;34.38;14.98;;;;;;;27.00;34.63;98906.91;5329534;23;20009;-91
2024/05/07 16:18:24;;;;;;;32.17;12.35;;;;;;;26.78;33.89;98899.72;5068475;27;20009;-94
2024/05/07 16:20:59;;;;;;;4.60;1.90;;;;;;;26.53;32.96;98889.31;5070248;28;20453;-92
2024/05/07 16:24:07;;;;;;;;;;;;;;;;;;;;;
2024/05/07 16:26:41;;;;;;;4.75;2.15;;;;;;;26.50;33.66;98912.22;5117514;28;20010;-93
2024/05/07 16:29:06;;;;;;;4.00;1.90;;;;;;;26.40;33.23;98897.16;5091210;28;20378;-94
2024/05/07 16:31:32;;;;;;;8.70;5.07;;;;;;;26.40;34.23;98908.22;5050712;28;20002;-93
2024/05/07 16:33:58;;;;;;;28.83;10.23;;;;;;;26.36;35.36;98918.44;5058806;28;20016;-94
2024/05/07 16:36:25;;;;;;;29.42;11.82;;;;;;;26.27;36.61;98922.72;5093378;28;19998;-93
2024/05/07 16:38:51;;;;;;;23.55;7.57;;;;;;;26.04;36.26;98907.19;5102817;28;20039;-95
2024/05/07 16:41:17;;;;;;;44.70;30.75;;;;;;;26.04;37.51;98923.75;5074452;27;20028;-94
2024/05/07 16:43:51;;;;;;;30.15;12.63;;;;;;;25.89;36.58;98905.47;5079168;27;20013;-96
2024/05/07 16:46:21;;;;;;;14.35;6.68;;;;;;;25.85;37.29;98912.94;5084343;27;20021;-96
2024/05/07 16:48:56;;;;;;;9.57;5.43;;;;;;;25.71;37.47;98910.84;5079471;27;20437;-96
2024/05/07 16:51:25;;;;;;;4.07;2.20;;;;;;;25.63;37.53;98912.78;5077907;27;20022;-96
2024/05/07 16:53:59;;;;;;;13.07;3.03;;;;;;;25.40;38.38;98911.00;5078465;27;20001;-94
2024/05/07 16:56:25;;;;;;;6.47;2.42;;;;;;;25.32;38.84;98917.63;5076239;27;20038;-95
2024/05/07 16:58:55;;;;;;;5.72;2.08;;;;;;;25.26;38.35;98921.88;5075265;27;20433;-96
2024/05/07 17:01:20;;;;;;;6.97;2.35;;;;;;;25.06;39.48;98920.44;5078276;27;20009;-96
2024/05/07 17:03:46;;;;;;;11.00;2.90;;;;;;;24.91;40.48;98917.53;5076151;27;20029;-96
2024/05/07 17:06:18;;;;;;;8.80;2.22;;;;;;;24.76;40.79;98926.81;5075871;27;20012;-96
2024/05/07 17:08:59;;;;;;;10.23;3.38;;;;;;;24.66;41.53;98933.75;5079233;27;20008;-96
2024/05/07 17:11:25;;;;;;;8.45;2.65;;;;;;;24.66;41.73;98952.25;5131588;27;20017;-96
2024/05/07 17:13:53;;;;;;;15.07;3.83;;;;;;;24.30;42.50;98925.00;5077326;27;20016;-96
2024/05/07 17:16:30;;;;;;;6.95;2.83;;;;;;;24.13;42.70;98917.28;5080088;27;20002;-96
2024/05/07 17:19:01;;;;;;;5.47;2.72;;;;;;;24.28;42.42;98954.84;5088739;27;20001;-96
2024/05/07 17:21:28;;;;;;;9.38;3.40;;;;;;;23.91;43.53;98914.19;5111920;27;20008;-96
2024/05/07 17:23:53;;;;;;;7.95;3.22;;;;;;;23.89;43.58;98930.28;5078122;27;20002;-96
2024/05/07 17:26:19;;;;;;;10.82;3.50;;;;;;;23.76;44.18;98935.19;5076494;27;20012;-96
2024/05/07 17:28:45;;;;;;;12.68;3.90;;;;;;;23.45;45.32;98924.38;5076950;27;20498;-96
2024/05/07 17:31:12;;;;;;;10.00;3.75;;;;;;;23.44;45.88;98936.56;5099395;27;20001;-96
2024/05/07 17:33:39;;;;;;;7.40;4.00;;;;;;;23.31;46.15;98931.22;5076658;27;20008;-96
2024/05/07 17:36:06;;;;;;;6.28;3.08;;;;;;;23.23;47.11;98939.72;5101150;27;19993;-96
2024/05/07 17:38:34;;;;;;;12.23;4.13;;;;;;;23.06;48.08;98941.75;5078939;27;20004;-95
2024/05/07 17:41:00;;;;;;;7.78;3.20;;;;;;;22.88;48.42;98952.34;5078360;27;20077;-96
2024/05/07 17:43:26;;;;;;;10.73;3.50;;;;;;;22.70;48.55;98949.25;5076623;27;20393;-96
2024/05/07 17:47:19;;;;;;;8.05;3.05;;;;;;;22.70;49.28;98946.50;5077483;27;20016;-96
2024/05/07 17:49:35;;;;;;;7.40;3.53;;;;;;;22.64;49.27;98963.59;5145047;27;19993;-96
2024/05/07 17:52:09;;;;;;;11.55;3.63;;;;;;;22.63;49.36;98970.25;5132578;27;20016;-95
2024/05/07 17:54:35;;;;;;;19.90;4.70;;;;;;;22.36;50.10;98962.59;5078701;27;20004;-96
2024/05/07 17:57:00;;;;;;;8.43;3.60;;;;;;;22.43;50.40;98969.41;5074991;27;19998;-94
2024/05/07 17:59:26;;;;;;;16.52;4.88;;;;;;;22.19;50.78;98958.28;5076229;27;20009;-96
2024/05/07 18:01:52;;;;;;;12.88;4.25;;;;;;;22.14;51.12;98963.22;5075644;27;20417;-94
2024/05/07 18:04:18;;;;;;;12.55;4.75;;;;;;;22.10;51.60;98987.03;5075909;27;20001;-96
2024/05/07 18:06:43;;;;;;;32.78;6.82;;;;;;;22.15;51.45;99004.00;5076646;27;20012;-95
2024/05/07 18:09:09;;;;;;;25.80;7.03;;;;;;;21.98;52.35;98998.91;5076006;27;20403;-96
2024/05/07 18:11:37;;;;;;;15.35;4.93;;;;;;;21.86;52.42;98997.03;5075566;27;19989;-93
2024/05/07 18:14:05;;;;;;;10.68;3.83;;;;;;;21.66;52.75;98987.91;5079882;27;20005;-95
2024/05/07 18:16:34;;;;;;;9.65;4.13;;;;;;;21.70;52.62;98998.97;5080056;27;20016;-96
2024/05/07 18:19:20;;;;;;;15.27;4.85;;;;;;;21.55;53.55;99008.75;5129945;27;20005;-95
2024/05/07 18:21:45;;;;;;;10.50;6.15;;;;;;;21.55;53.49;99008.75;5102924;27;20372;-95
2024/05/07 18:24:11;;;;;;;10.73;5.07;;;;;;;21.35;54.45;99005.03;5075898;27;20004;-95
2024/05/07 18:26:36;;;;;;;17.92;5.55;;;;;;;21.30;55.00;99008.03;5075348;27;20008;-95
2024/05/07 18:29:02;;;;;;;12.25;5.40;;;;;;;21.31;54.89;99015.09;5078314;27;20001;-95
2024/05/07 18:31:31;;;;;;;10.80;5.95;;;;;;;21.24;55.48;99012.97;5077264;27;20016;-96
2024/05/07 18:33:59;;;;;;;12.85;5.20;;;;;;;21.20;55.49;99021.06;5078560;27;20033;-96
2024/05/07 18:36:30;;;;;;;11.88;4.75;;;;;;;21.17;55.86;99021.78;5077782;27;19997;-95
2024/05/07 18:38:55;;;;;;;14.95;4.90;;;;;;;21.08;55.64;99023.06;5077360;27;20313;-94
2024/05/07 18:41:24;;;;;;;16.67;5.90;;;;;;;21.02;55.53;99022.50;5075901;27;20008;-95
2024/05/07 18:43:53;;;;;;;13.27;5.22;;;;;;;20.99;55.67;99021.25;5078878;27;20001;-96
2024/05/07 18:46:23;;;;;;;21.55;5.40;;;;;;;21.07;56.71;99051.59;5088440;23;20019;-96
2024/05/07 18:48:48;;;;;;;8.52;3.90;;;;;;;20.82;56.46;99024.28;5069410;28;20002;-94
2024/05/07 18:51:14;;;;;;;31.67;7.00;;;;;;;20.73;56.63;99046.31;5070591;28;20060;-94
2024/05/07 18:53:42;;;;;;;11.63;3.58;;;;;;;20.83;56.40;99063.38;5071016;28;19990;-94
2024/05/07 18:56:08;;;;;;;7.90;3.95;;;;;;;20.58;56.76;99047.00;5096633;28;20016;-94
2024/05/07 18:58:33;;;;;;;9.30;4.55;;;;;;;20.51;57.20;99049.50;5071192;28;20010;-94
2024/05/07 19:00:59;;;;;;;7.70;3.90;;;;;;;20.41;56.98;99039.78;5071034;28;19994;-95
2024/05/07 19:03:25;;;;;;;9.30;4.45;;;;;;;20.54;57.19;99076.97;5070885;28;20010;-95
2024/05/07 19:05:51;;;;;;;7.63;4.70;;;;;;;20.57;57.04;99075.47;5067982;28;20442;-95
2024/05/07 19:08:17;;;;;;;16.58;5.00;;;;;;;20.24;57.30;99045.50;5070336;28;20022;-95
2024/05/07 19:10:43;;;;;;;8.88;4.20;;;;;;;20.18;57.31;99045.72;5070851;28;20437;-96
2024/05/07 19:13:08;;;;;;;9.80;4.45;;;;;;;20.25;57.68;99061.53;5045348;28;20009;-94
2024/05/07 19:15:35;;;;;;;14.88;4.70;;;;;;;20.23;57.78;99050.16;5069902;28;20009;-94
2024/05/07 19:18:05;;;;;;;17.75;3.85;;;;;;;20.30;58.14;99074.22;5071109;28;20043;-96
2024/05/07 19:20:31;;;;;;;9.10;3.45;;;;;;;20.05;59.31;99065.19;5052788;28;20009;-96
2024/05/07 19:23:02;;;;;;;6.65;3.45;;;;;;;19.91;59.78;99065.50;5046755;28;20066;-95
2024/05/07 19:25:31;;;;;;;13.47;4.20;;;;;;;19.71;60.07;99050.75;5100337;28;19998;-96
2024/05/07 19:28:03;;;;;;;10.57;5.20;;;;;;;19.84;59.37;99062.50;5073488;28;20051;-96
2024/05/07 19:30:28;;;;;;;;;;;;;;;20.02;59.22;99087.72;5073709;28;20002;-96
2024/05/07 19:32:54;;;;;;;10.85;4.30;;;;;;;19.95;59.07;99077.34;5070666;28;19979;-96
2024/05/07 19:35:19;;;;;;;6.15;3.17;;;;;;;19.94;58.89;99064.81;5044757;28;20441;-94
2024/05/07 19:37:45;;;;;;;6.70;2.88;;;;;;;19.97;58.55;99067.66;5046828;28;20013;-95
2024/05/07 19:40:11;;;;;;;6.82;2.78;;;;;;;20.08;58.48;99078.16;5048748;28;19993;-96
2024/05/07 19:42:37;;;;;;;8.25;3.05;;;;;;;19.94;58.30;99056.59;5072925;28;20002;-96
2024/05/07 19:45:03;;;;;;;6.80;2.85;;;;;;;20.02;58.23;99072.09;5071631;28;20070;-95
2024/05/07 19:47:31;;;;;;;9.73;2.70;;;;;;;20.05;57.85;99071.44;5071032;28;20002;-96
2024/05/07 19:49:57;;;;;;;6.95;2.85;;;;;;;19.98;58.54;99074.75;5070042;28;20001;-96
2024/05/07 19:52:28;;;;;;;5.80;2.97;;;;;;;20.05;58.33;99081.59;5072692;27;20043;-95
2024/05/07 19:54:57;;;;;;;6.57;3.20;;;;;;;19.87;59.38;99075.50;5095250;28;20006;-95
2024/05/07 19:57:23;;;;;;;9.70;3.05;;;;;;;19.81;59.79;99076.84;5070915;28;20316;-95
2024/05/07 19:59:49;;;;;;;8.93;3.42;;;;;;;19.86;60.23;99112.16;5046125;27;20009;-94
2024/05/07 20:02:14;;;;;;;8.05;3.70;;;;;;;19.57;60.20;99072.88;5044041;28;19997;-96
2024/05/07 20:04:41;;;;;;;7.65;3.35;;;;;;;19.56;60.49;99080.25;5042149;28;20082;-94
2024/05/07 20:07:07;;;;;;;7.72;3.75;;;;;;;19.47;61.05;99078.75;5042149;28;20002;-96
2024/05/07 20:09:32;;;;;;;12.05;4.10;;;;;;;19.48;60.70;99081.13;5041898;28;20002;-95
2024/05/07 20:11:59;;;;;;;10.07;4.03;;;;;;;19.50;60.62;99087.06;5043767;28;20002;-96
2024/05/07 20:14:26;;;;;;;7.97;4.20;;;;;;;19.39;60.93;99078.47;5041089;28;20071;-95
2024/05/07 20:16:52;;;;;;;9.70;4.13;;;;;;;19.33;61.28;99082.53;5042222;28;20008;-95
2024/05/07 20:19:17;;;;;;;9.23;4.15;;;;;;;19.48;61.25;99102.97;5067656;28;19994;-94
2024/05/07 20:21:44;;;;;;;10.93;3.45;;;;;;;19.38;61.73;99092.47;5042339;28;20215;-95